Danmark — OXDK — position and weather

sailwx.info

Track history (hours):
 
Tides and Currents Weather Stations Pressure Air Temp Water Temp Dewpoint Dewpoint Depression Visibility Wind Speed Wind Dir Waves Ship Positions

Danmark (Denmark)

Last reported at 2017-Mar-28 14:10 UTC. Time now 2017-Mar-29 13:18 UTC.
Position N 18°16' W 064°55'.

Length 60 m; beam 10 m; draft 5 m.

Type: Sailing vessel. MMSI: 219500000.

Date/timePositionNaut miles runAvg speedWind from/ knotsBaromVisibWave heightAir tempDewpointWater temp
2017-Mar-28 14:10N 18°16' W 064°55'3 4.8
2017-Mar-28 13:29N 18°13' W 064°53'5 1.6
2017-Mar-28 10:33N 18°12' W 064°48'1 0.8
2017-Mar-28 09:33N 18°12' W 064°48'0 0.5
2017-Mar-28 08:32N 18°11' W 064°47'  
2017-Mar-25 21:19N 17°50' W 062°28'3 4.2
2017-Mar-25 20:33N 17°50' W 062°25'4 4.1
2017-Mar-25 19:32N 17°48' W 062°21'3 3.3
2017-Mar-25 18:33N 17°48' W 062°17'8 3.9
2017-Mar-25 16:33N 17°51' W 062°10'5 5.2
2017-Mar-25 15:32N 17°56' W 062°06'8 2.5
2017-Mar-25 12:12N 18°00' W 061°59'4 6.1
2017-Mar-25 11:33N 17°56' W 061°60'6 5.5
2017-Mar-25 10:33N 17°51' W 061°59'6 6.0
2017-Mar-25 09:33N 17°45' W 061°59'6 6.1
2017-Mar-25 08:34N 17°39' W 061°60'7 6.6
2017-Mar-25 07:33N 17°32' W 062°01'6 6.3
2017-Mar-25 06:34N 17°26' W 062°02'6 6.1
2017-Mar-25 05:33N 17°20' W 062°03'5 5.4
2017-Mar-25 04:34N 17°15' W 062°04'6 6.3
2017-Mar-25 03:33N 17°08' W 062°04'5 4.9
2017-Mar-25 02:33N 17°03' W 062°03'6 5.9
2017-Mar-25 01:33N 16°58' W 062°03'5 5.4
2017-Mar-25 00:33N 16°52' W 062°03'5 5.3
2017-Mar-24 23:33N 16°47' W 062°03'5 4.9
2017-Mar-24 22:33N 16°42' W 062°03'4 4.5
2017-Mar-24 21:33N 16°37' W 062°02'4 4.4
2017-Mar-24 20:33N 16°33' W 062°02'4 4.2
2017-Mar-24 19:33N 16°29' W 061°60'2 2.2
2017-Mar-24 18:34N 16°27' W 061°59'5 5.5
2017-Mar-24 17:33N 16°23' W 062°02'2 1.7
2017-Mar-24 16:33N 16°22' W 062°04'6 5.6
2017-Mar-24 15:34N 16°22' W 062°09'1 0.6
2017-Mar-24 14:28N 16°22' W 062°10'0 0.5
2017-Mar-24 13:32N 16°22' W 062°10'2 2.0
2017-Mar-24 12:33N 16°20' W 062°11'3 2.9
2017-Mar-24 11:33N 16°17' W 062°11'2 2.0
2017-Mar-24 10:32N 16°15' W 062°12'2 1.7
2017-Mar-24 09:33N 16°13' W 062°12'2 1.7
2017-Mar-24 08:27N 16°11' W 062°12'2 1.5
2017-Mar-24 07:12N 16°10' W 062°10'38 4.9
2017-Mar-23 23:32N 15°39' W 061°48'5 4.9
2017-Mar-23 22:27N 15°36' W 061°43'4 4.5
2017-Mar-23 21:34N 15°34' W 061°40'  
Track history (hours):
 
Tides and Currents Weather Stations Pressure Air Temp Water Temp Dewpoint Dewpoint Depression Visibility Wind Speed Wind Dir Waves Ship Positions

Danmark (Denmark)

Last reported at 2017-Mar-28 14:10 UTC. Time now 2017-Mar-29 13:18 UTC.
Position N 18°16' W 064°55'.

Length 60 m; beam 10 m; draft 5 m.

Type: Sailing vessel. MMSI: 219500000.

Date/timePositionNaut miles runAvg speedWind from/ knotsBaromVisibWave heightAir tempDewpointWater temp
2017-Mar-28 14:10N 18°16' W 064°55'3 4.8
2017-Mar-28 13:29N 18°13' W 064°53'5 1.6
2017-Mar-28 10:33N 18°12' W 064°48'1 0.8
2017-Mar-28 09:33N 18°12' W 064°48'0 0.5
2017-Mar-28 08:32N 18°11' W 064°47'  
2017-Mar-25 21:19N 17°50' W 062°28'3 4.2
2017-Mar-25 20:33N 17°50' W 062°25'4 4.1
2017-Mar-25 19:32N 17°48' W 062°21'3 3.3
2017-Mar-25 18:33N 17°48' W 062°17'8 3.9
2017-Mar-25 16:33N 17°51' W 062°10'5 5.2
2017-Mar-25 15:32N 17°56' W 062°06'8 2.5
2017-Mar-25 12:12N 18°00' W 061°59'4 6.1
2017-Mar-25 11:33N 17°56' W 061°60'6 5.5
2017-Mar-25 10:33N 17°51' W 061°59'6 6.0
2017-Mar-25 09:33N 17°45' W 061°59'6 6.1
2017-Mar-25 08:34N 17°39' W 061°60'7 6.6
2017-Mar-25 07:33N 17°32' W 062°01'6 6.3
2017-Mar-25 06:34N 17°26' W 062°02'6 6.1
2017-Mar-25 05:33N 17°20' W 062°03'5 5.4
2017-Mar-25 04:34N 17°15' W 062°04'6 6.3
2017-Mar-25 03:33N 17°08' W 062°04'5 4.9
2017-Mar-25 02:33N 17°03' W 062°03'6 5.9
2017-Mar-25 01:33N 16°58' W 062°03'5 5.4
2017-Mar-25 00:33N 16°52' W 062°03'5 5.3
2017-Mar-24 23:33N 16°47' W 062°03'5 4.9
2017-Mar-24 22:33N 16°42' W 062°03'4 4.5
2017-Mar-24 21:33N 16°37' W 062°02'4 4.4
2017-Mar-24 20:33N 16°33' W 062°02'4 4.2
2017-Mar-24 19:33N 16°29' W 061°60'2 2.2
2017-Mar-24 18:34N 16°27' W 061°59'5 5.5
2017-Mar-24 17:33N 16°23' W 062°02'2 1.7
2017-Mar-24 16:33N 16°22' W 062°04'6 5.6
2017-Mar-24 15:34N 16°22' W 062°09'1 0.6
2017-Mar-24 14:28N 16°22' W 062°10'0 0.5
2017-Mar-24 13:32N 16°22' W 062°10'2 2.0
2017-Mar-24 12:33N 16°20' W 062°11'3 2.9
2017-Mar-24 11:33N 16°17' W 062°11'2 2.0
2017-Mar-24 10:32N 16°15' W 062°12'2 1.7
2017-Mar-24 09:33N 16°13' W 062°12'2 1.7
2017-Mar-24 08:27N 16°11' W 062°12'2 1.5
2017-Mar-24 07:12N 16°10' W 062°10'38 4.9
2017-Mar-23 23:32N 15°39' W 061°48'5 4.9
2017-Mar-23 22:27N 15°36' W 061°43'4 4.5
2017-Mar-23 21:34N 15°34' W 061°40'  

Dump ship's entire track history